Time;durP1;ratioP1;P1;durP2;ratioP2;P2;SDS_P1;SDS_P2;PMS_P1;PMS_P2;Temp;Humidity;BMP_temperature;BMP_pressure;BME280_temperature;BME280_humidity;BME280_pressure;Samples;Min_cycle;Max_cycle;Signal;HPM_P1;HPM_P2
2021/12/24 00:02:23;;;;;;;4.70;3.42;;;8.20;99.90;;;;;;5019481;28;20029;-73
2021/12/24 00:04:49;;;;;;;4.10;3.35;;;8.20;99.90;;;;;;5018374;28;20402;-75
2021/12/24 00:07:14;;;;;;;4.60;3.80;;;8.20;99.90;;;;;;5026684;28;20028;-75
2021/12/24 00:09:40;;;;;;;3.70;3.00;;;8.20;99.90;;;;;;5022656;28;20069;-74
2021/12/24 00:12:13;;;;;;;5.95;3.97;;;8.20;99.90;;;;;;5029975;28;20017;-74
2021/12/24 00:14:43;;;;;;;3.70;3.17;;;8.30;99.90;;;;;;5021151;28;20034;-73
2021/12/24 00:17:13;;;;;;;5.13;3.87;;;8.20;99.90;;;;;;5029614;28;20033;-75
2021/12/24 00:19:46;;;;;;;4.88;3.33;;;8.20;99.90;;;;;;5017908;28;20277;-74
2021/12/24 00:35:35;;;;;;;8.10;3.53;;;8.20;99.90;;;;;;5016683;28;20072;-74
2021/12/24 00:38:07;;;;;;;3.42;2.72;;;8.20;99.90;;;;;;5022516;28;20017;-74
2021/12/24 00:40:36;;;;;;;3.28;2.60;;;8.30;99.90;;;;;;5027243;28;20026;-75
2021/12/24 00:43:02;;;;;;;4.13;3.00;;;8.40;99.90;;;;;;5022643;28;20029;-74
2021/12/24 00:45:31;;;;;;;4.43;2.58;;;8.50;99.90;;;;;;5027589;28;20029;-74
2021/12/24 00:47:59;;;;;;;3.65;2.90;;;8.50;99.90;;;;;;5028574;28;20524;-75
2021/12/24 00:50:28;;;;;;;3.58;2.97;;;8.50;99.90;;;;;;5020270;28;20536;-74
2021/12/24 00:53:01;;;;;;;4.18;3.00;;;8.40;99.90;;;;;;5028799;28;20024;-75
2021/12/24 00:55:29;;;;;;;3.50;2.83;;;8.40;99.90;;;;;;5017368;28;20021;-76
2021/12/24 00:57:58;;;;;;;3.85;3.00;;;8.40;99.90;;;;;;5023950;28;20099;-76
2021/12/24 01:00:26;;;;;;;3.40;3.10;;;8.30;99.90;;;;;;5013095;28;20163;-75
2021/12/24 01:02:53;;;;;;;4.65;3.08;;;8.30;99.90;;;;;;5021846;28;20018;-74
2021/12/24 01:05:22;;;;;;;4.22;3.15;;;8.20;99.90;;;;;;5017416;28;20486;-75
2021/12/24 01:07:49;;;;;;;3.08;2.65;;;8.20;99.90;;;;;;5027962;28;20021;-74
2021/12/24 01:10:18;;;;;;;4.40;3.30;;;8.10;99.90;;;;;;5024025;28;20378;-76
2021/12/24 01:12:44;;;;;;;5.43;3.47;;;8.10;99.90;;;;;;5024783;28;20709;-74
2021/12/24 01:15:10;;;;;;;4.97;3.72;;;8.10;99.90;;;;;;5023447;28;20021;-76
2021/12/24 01:20:20;;;;;;;5.30;3.53;;;8.00;99.90;;;;;;5021274;28;20124;-76
2021/12/24 01:23:34;;;;;;;4.82;3.78;;;7.90;99.90;;;;;;5025237;28;20033;-75
2021/12/24 01:41:19;;;;;;;6.03;3.72;;;7.80;99.90;;;;;;5022112;28;20544;-76
2021/12/24 01:43:45;;;;;;;8.30;3.92;;;7.80;99.90;;;;;;5023372;28;20071;-75
2021/12/24 01:46:12;;;;;;;5.72;4.30;;;7.70;99.90;;;;;;5024571;28;20025;-75
2021/12/24 01:48:38;;;;;;;4.70;3.42;;;7.70;99.90;;;;;;5023339;28;20028;-76
2021/12/24 01:51:04;;;;;;;4.90;3.78;;;7.80;99.90;;;;;;5024292;28;20034;-75
2021/12/24 01:53:33;;;;;;;3.90;2.40;;;7.90;99.90;;;;;;5024669;28;20085;-76
2021/12/24 01:55:59;;;;;;;5.93;2.60;;;8.00;99.90;;;;;;5023243;28;20026;-76
2021/12/24 01:58:27;;;;;;;3.83;2.70;;;8.20;99.90;;;;;;5024274;28;20033;-76
2021/12/24 02:00:55;;;;;;;2.95;2.50;;;8.40;99.90;;;;;;5021450;28;20080;-76
2021/12/24 02:03:21;;;;;;;3.08;2.30;;;8.40;99.90;;;;;;5022899;28;20041;-76
2021/12/24 02:05:48;;;;;;;3.15;2.10;;;8.60;99.90;;;;;;5020360;28;20017;-76
2021/12/24 02:08:15;;;;;;;3.63;2.47;;;8.70;99.90;;;;;;5022920;28;20025;-75
2021/12/24 02:10:41;;;;;;;2.92;2.17;;;8.80;99.90;;;;;;5018896;28;20026;-76
2021/12/24 02:13:07;;;;;;;4.55;2.88;;;8.90;99.90;;;;;;5016906;28;20728;-75
2021/12/24 02:18:39;;;;;;;4.10;2.45;;;8.90;99.90;;;;;;5017276;28;20150;-76
2021/12/24 02:29:15;;;;;;;2.80;2.50;;;9.10;99.90;;;;;;5022686;28;20084;-75
2021/12/24 02:31:41;;;;;;;3.13;2.40;;;9.10;99.90;;;;;;5023922;28;20025;-76
2021/12/24 02:34:06;;;;;;;2.92;2.33;;;9.10;99.90;;;;;;5020422;28;20026;-76
2021/12/24 02:36:33;;;;;;;3.70;2.50;;;9.30;99.90;;;;;;5024109;28;20097;-75
2021/12/24 02:38:58;;;;;;;3.72;2.40;;;9.30;99.90;;;;;;5019334;28;20029;-76
2021/12/24 02:41:24;;;;;;;3.75;3.10;;;9.30;99.90;;;;;;5010742;28;20076;-75
2021/12/24 02:43:50;;;;;;;3.28;2.25;;;9.20;99.90;;;;;;5021908;28;20264;-76
2021/12/24 02:54:20;;;;;;;3.15;2.10;;;9.20;99.90;;;;;;5022464;28;20032;-75
2021/12/24 02:56:58;;;;;;;2.78;2.53;;;9.20;99.90;;;;;;5023213;28;20389;-76
2021/12/24 02:59:26;;;;;;;3.30;2.03;;;9.20;99.90;;;;;;5018653;28;20025;-77
2021/12/24 03:01:53;;;;;;;6.15;2.35;;;9.30;99.90;;;;;;5022384;28;20021;-76
2021/12/24 03:04:19;;;;;;;2.25;2.05;;;9.40;99.90;;;;;;5017369;28;20029;-75
2021/12/24 03:06:49;;;;;;;2.40;2.20;;;9.50;99.90;;;;;;5023719;28;20013;-76
2021/12/24 03:09:17;;;;;;;4.13;2.70;;;9.40;99.90;;;;;;5020403;28;20022;-76
2021/12/24 03:11:44;;;;;;;2.97;1.60;;;9.30;99.90;;;;;;5016881;28;20018;-75
2021/12/24 03:14:11;;;;;;;3.97;2.00;;;9.20;99.90;;;;;;5012864;28;20056;-76
2021/12/24 03:16:38;;;;;;;3.03;2.30;;;9.20;99.90;;;;;;5016423;28;20026;-76
2021/12/24 03:19:07;;;;;;;2.67;2.28;;;9.20;99.90;;;;;;5013887;28;20041;-76
2021/12/24 03:21:57;;;;;;;5.10;3.00;;;9.30;99.90;;;;;;5024393;28;20021;-76
2021/12/24 03:26:49;;;;;;;2.65;2.30;;;9.30;99.90;;;;;;5023354;28;20028;-76
2021/12/24 03:29:17;;;;;;;2.20;1.88;;;9.20;99.90;;;;;;5022068;28;20072;-76
2021/12/24 03:31:44;;;;;;;2.65;1.95;;;9.20;99.90;;;;;;5022894;28;20501;-76
2021/12/24 03:34:13;;;;;;;2.42;2.22;;;9.20;99.90;;;;;;5026021;28;20144;-76
2021/12/24 03:36:38;;;;;;;2.67;2.10;;;9.30;99.90;;;;;;5027092;28;20032;-75
2021/12/24 03:39:06;;;;;;;4.07;2.00;;;9.30;99.90;;;;;;5025637;28;20037;-76
2021/12/24 03:41:31;;;;;;;2.50;2.08;;;9.30;99.90;;;;;;5025921;28;20018;-74
2021/12/24 03:43:57;;;;;;;2.53;2.15;;;9.20;99.90;;;;;;5025005;28;20055;-76
2021/12/24 03:46:32;;;;;;;3.22;1.80;;;9.10;99.90;;;;;;5025814;28;20401;-75
2021/12/24 03:49:03;;;;;;;3.13;2.80;;;9.10;99.90;;;;;;5023390;28;20043;-75
2021/12/24 03:51:50;;;;;;;2.33;1.83;;;9.10;99.90;;;;;;5016554;28;20482;-76
2021/12/24 03:57:00;;;;;;;3.28;2.33;;;9.20;99.90;;;;;;5026225;28;20044;-77
2021/12/24 03:59:25;;;;;;;3.17;2.33;;;9.20;99.90;;;;;;5026575;28;20021;-76
2021/12/24 04:01:51;;;;;;;2.80;2.08;;;9.00;99.90;;;;;;5025678;28;20018;-75
2021/12/24 04:04:16;;;;;;;3.60;2.63;;;9.00;99.90;;;;;;5021271;28;20025;-76
2021/12/24 04:06:42;;;;;;;3.05;2.60;;;8.90;99.90;;;;;;5028183;28;20018;-75
2021/12/24 04:09:08;;;;;;;3.35;2.22;;;8.80;99.90;;;;;;5020300;28;20497;-76
2021/12/24 04:11:37;;;;;;;3.55;2.20;;;8.70;99.90;;;;;;5028698;28;20057;-76
2021/12/24 04:14:03;;;;;;;3.80;2.42;;;8.70;99.90;;;;;;5021563;28;20038;-74
2021/12/24 04:16:28;;;;;;;2.58;2.38;;;8.70;99.90;;;;;;5020508;28;20034;-75
2021/12/24 04:26:55;;;;;;;2.40;2.20;;;8.60;99.90;;;;;;5037189;28;20041;-74
2021/12/24 04:29:20;;;;;;;5.07;2.05;;;8.60;99.90;;;;;;5047732;28;20501;-75
2021/12/24 04:32:08;;;;;;;2.55;2.15;;;8.60;99.90;;;;;;5038055;28;20048;-74
2021/12/24 04:34:36;;;;;;;2.88;2.58;;;8.50;99.90;;;;;;5039724;28;20018;-75
2021/12/24 04:50:58;;;;;;;3.05;2.33;;;8.50;99.90;;;;;;4993357;28;20041;-75
2021/12/24 05:05:01;;;;;;;3.70;2.75;;;8.80;99.90;;;;;;5021619;28;20076;-76
2021/12/24 05:07:58;;;;;;;2.60;1.95;;;8.90;99.90;;;;;;5017276;28;20433;-76
2021/12/24 05:10:15;;;;;;;3.85;2.17;;;8.90;99.90;;;;;;5027114;28;20023;-77
2021/12/24 05:12:41;;;;;;;3.00;2.28;;;9.10;99.90;;;;;;5017266;28;20018;-76
2021/12/24 05:15:09;;;;;;;2.15;1.95;;;9.20;99.90;;;;;;4987287;28;1044348;-76
2021/12/24 05:17:48;;;;;;;2.60;2.40;;;9.20;99.90;;;;;;5020618;28;20023;-75
2021/12/24 05:22:58;;;;;;;3.03;2.63;;;9.30;99.90;;;;;;5021194;28;20049;-75
2021/12/24 05:25:23;;;;;;;3.25;2.50;;;9.20;99.90;;;;;;5021589;28;20025;-75
2021/12/24 05:27:52;;;;;;;2.22;2.03;;;9.30;99.90;;;;;;5020734;28;20475;-75
2021/12/24 05:30:18;;;;;;;2.92;2.30;;;9.30;99.90;;;;;;5026618;28;20083;-75
2021/12/24 05:32:44;;;;;;;4.38;2.40;;;9.40;99.90;;;;;;5023675;28;20029;-76
2021/12/24 05:35:10;;;;;;;3.40;2.10;;;9.40;99.90;;;;;;5024151;28;20029;-76
2021/12/24 05:37:35;;;;;;;2.55;2.22;;;9.30;99.90;;;;;;5023467;28;20548;-76
2021/12/24 05:40:01;;;;;;;2.70;2.08;;;9.30;99.90;;;;;;5023549;28;20048;-76
2021/12/24 05:42:31;;;;;;;2.67;2.20;;;9.30;99.90;;;;;;5024551;28;20028;-76
2021/12/24 05:45:03;;;;;;;2.83;2.15;;;9.30;99.90;;;;;;5021026;28;20029;-76
2021/12/24 05:47:28;;;;;;;4.30;2.03;;;9.30;99.90;;;;;;5020192;28;20393;-76
2021/12/24 05:49:54;;;;;;;4.47;2.58;;;9.20;99.90;;;;;;5022404;28;20018;-76
2021/12/24 05:52:20;;;;;;;3.25;2.40;;;9.20;99.90;;;;;;5023104;28;20079;-76
2021/12/24 05:54:46;;;;;;;2.72;2.40;;;9.20;99.90;;;;;;5026017;28;20100;-76
2021/12/24 05:57:12;;;;;;;2.95;2.33;;;9.30;99.90;;;;;;5021387;28;20032;-76
2021/12/24 05:59:38;;;;;;;2.60;2.20;;;9.30;99.90;;;;;;5023257;28;20018;-76
2021/12/24 06:02:03;;;;;;;5.43;2.33;;;9.30;99.90;;;;;;5021545;28;20038;-76
2021/12/24 06:04:29;;;;;;;3.42;2.30;;;9.40;99.90;;;;;;5016839;28;20076;-75
2021/12/24 06:06:55;;;;;;;4.55;2.47;;;9.40;99.90;;;;;;5022174;28;20025;-76
2021/12/24 06:09:20;;;;;;;5.85;2.47;;;9.40;99.90;;;;;;5027342;28;20021;-75
2021/12/24 06:11:46;;;;;;;4.70;2.50;;;9.30;99.90;;;;;;5019259;28;20028;-75
2021/12/24 06:14:12;;;;;;;4.03;3.38;;;9.30;99.90;;;;;;5026806;28;20462;-76
2021/12/24 06:17:23;;;;;;;2.63;2.35;;;9.30;99.90;;;;;;5014513;28;20044;-76
2021/12/24 06:19:29;;;;;;;2.92;2.50;;;9.30;99.90;;;;;;5011729;28;20040;-77
2021/12/24 06:21:56;;;;;;;3.08;2.50;;;9.30;99.90;;;;;;5020293;28;20029;-76
2021/12/24 06:24:21;;;;;;;2.92;2.67;;;9.20;99.90;;;;;;5026109;28;20018;-76
2021/12/24 06:26:48;;;;;;;3.03;2.55;;;9.20;99.90;;;;;;5020384;28;20528;-75
2021/12/24 06:29:14;;;;;;;4.57;2.50;;;9.30;99.90;;;;;;5025773;28;20109;-76
2021/12/24 06:31:39;;;;;;;7.45;3.08;;;9.40;99.90;;;;;;5024344;28;20049;-76
2021/12/24 06:34:06;;;;;;;3.00;2.70;;;9.50;99.90;;;;;;5020504;28;20053;-75
2021/12/24 06:36:36;;;;;;;3.33;2.85;;;9.60;99.90;;;;;;5019396;28;20428;-76
2021/12/24 06:39:03;;;;;;;3.47;2.70;;;9.80;99.90;;;;;;5015113;28;20030;-76
2021/12/24 06:41:29;;;;;;;5.93;2.92;;;9.80;99.90;;;;;;5023469;28;20116;-75
2021/12/24 06:43:55;;;;;;;3.15;2.85;;;9.90;99.90;;;;;;5021030;28;20123;-75
2021/12/24 06:46:20;;;;;;;3.92;3.00;;;9.90;99.90;;;;;;5023170;28;20019;-75
2021/12/24 06:48:48;;;;;;;3.72;2.83;;;9.90;99.90;;;;;;5024673;28;20064;-75
2021/12/24 06:51:14;;;;;;;4.18;2.60;;;10.10;99.90;;;;;;5022424;28;20022;-74
2021/12/24 06:53:39;;;;;;;3.80;2.83;;;10.00;99.90;;;;;;5023730;28;20022;-74
2021/12/24 06:56:05;;;;;;;4.25;3.05;;;10.10;99.90;;;;;;5021522;28;20482;-75
2021/12/24 06:58:31;;;;;;;5.70;2.70;;;10.10;99.90;;;;;;5022609;28;20067;-75
2021/12/24 07:00:56;;;;;;;3.15;2.53;;;10.10;99.90;;;;;;5023342;28;20032;-76
2021/12/24 07:03:22;;;;;;;3.53;3.00;;;10.10;99.90;;;;;;5020676;28;20446;-76
2021/12/24 07:05:48;;;;;;;4.63;2.72;;;10.10;99.90;;;;;;5023537;28;20022;-75
2021/12/24 07:08:14;;;;;;;3.63;2.97;;;10.10;99.90;;;;;;5020124;28;20042;-74
2021/12/24 07:10:39;;;;;;;6.43;2.90;;;10.10;99.90;;;;;;5021150;28;20021;-74
2021/12/24 07:13:05;;;;;;;3.47;3.17;;;10.00;99.90;;;;;;5020471;28;20494;-76
2021/12/24 07:15:30;;;;;;;3.97;2.60;;;10.00;99.90;;;;;;5023083;28;20013;-75
2021/12/24 07:17:56;;;;;;;5.45;2.70;;;9.90;99.90;;;;;;5013923;28;20430;-76
2021/12/24 07:20:21;;;;;;;3.90;2.95;;;9.90;99.90;;;;;;5023703;28;20017;-76
2021/12/24 07:22:47;;;;;;;3.17;2.47;;;10.00;99.90;;;;;;5022539;28;20030;-75
2021/12/24 07:25:13;;;;;;;6.95;2.97;;;9.90;99.90;;;;;;5021498;28;20030;-76
2021/12/24 07:27:38;;;;;;;5.32;3.10;;;9.80;99.90;;;;;;5022829;28;20100;-76
2021/12/24 07:30:06;;;;;;;4.43;2.50;;;9.70;99.90;;;;;;5027100;28;20386;-76
2021/12/24 07:32:32;;;;;;;3.28;2.92;;;9.70;99.90;;;;;;5011111;28;20018;-76
2021/12/24 07:34:57;;;;;;;2.55;2.30;;;9.60;99.90;;;;;;5018288;28;20112;-76
2021/12/24 07:37:23;;;;;;;3.80;2.78;;;9.60;99.90;;;;;;5024068;28;20022;-75
2021/12/24 07:39:48;;;;;;;4.60;3.22;;;9.50;99.90;;;;;;5021793;28;20052;-75
2021/12/24 07:42:14;;;;;;;3.30;2.88;;;9.50;99.90;;;;;;5023577;28;20080;-75
2021/12/24 07:44:39;;;;;;;3.08;2.78;;;9.50;99.90;;;;;;5019667;28;20021;-74
2021/12/24 07:47:14;;;;;;;3.35;2.90;;;9.60;99.90;;;;;;5021374;28;20014;-76
2021/12/24 07:49:40;;;;;;;2.88;2.58;;;9.50;99.90;;;;;;5022603;28;20588;-75
2021/12/24 07:52:12;;;;;;;3.13;2.60;;;9.50;99.90;;;;;;5020660;28;20469;-75
2021/12/24 07:54:47;;;;;;;2.60;2.40;;;9.40;99.90;;;;;;5015030;28;20112;-76
2021/12/24 07:57:14;;;;;;;4.25;2.85;;;9.40;99.90;;;;;;5028881;28;20026;-75
2021/12/24 07:59:42;;;;;;;3.63;2.92;;;9.30;99.90;;;;;;5023120;28;20112;-74
2021/12/24 08:02:15;;;;;;;4.25;3.10;;;9.30;99.90;;;;;;5019159;28;20033;-76
2021/12/24 08:04:41;;;;;;;5.35;2.95;;;9.30;99.90;;;;;;5022659;28;20559;-75
2021/12/24 08:07:07;;;;;;;4.18;2.58;;;9.20;99.90;;;;;;5019967;28;20070;-74
2021/12/24 08:09:36;;;;;;;3.47;2.95;;;9.20;99.90;;;;;;5022991;28;20029;-74
2021/12/24 08:12:03;;;;;;;3.70;3.38;;;9.30;99.90;;;;;;5026989;28;20029;-74
2021/12/24 08:14:29;;;;;;;3.45;3.08;;;9.20;99.90;;;;;;5017761;28;20503;-74
2021/12/24 08:16:54;;;;;;;6.07;3.42;;;9.20;99.90;;;;;;5029440;28;20060;-75
2021/12/24 08:19:20;;;;;;;6.93;3.45;;;9.20;99.90;;;;;;5020428;28;20041;-74
2021/12/24 08:21:45;;;;;;;7.07;3.70;;;9.30;99.90;;;;;;5027295;28;20504;-75
2021/12/24 08:24:12;;;;;;;7.68;4.72;;;9.40;99.90;;;;;;5023921;28;20508;-75
2021/12/24 08:26:37;;;;;;;8.40;5.60;;;9.40;99.90;;;;;;5025748;28;20053;-75
2021/12/24 08:29:03;;;;;;;5.25;4.40;;;9.40;99.90;;;;;;5025056;28;20536;-75
2021/12/24 08:31:29;;;;;;;3.50;3.20;;;9.60;99.90;;;;;;5023118;28;20029;-73
2021/12/24 08:33:54;;;;;;;3.15;2.85;;;9.60;99.90;;;;;;5024669;28;20105;-75
2021/12/24 08:36:20;;;;;;;3.75;2.70;;;9.70;99.90;;;;;;5025743;28;20049;-73
2021/12/24 08:38:45;;;;;;;3.40;2.22;;;9.70;99.90;;;;;;5025196;28;20028;-74
2021/12/24 08:41:11;;;;;;;2.83;2.50;;;9.80;99.90;;;;;;5023933;28;20486;-74
2021/12/24 08:43:37;;;;;;;4.07;2.55;;;9.80;99.90;;;;;;5025855;28;20021;-74
2021/12/24 08:46:03;;;;;;;3.42;2.70;;;9.80;99.90;;;;;;5026632;28;20025;-74
2021/12/24 08:48:28;;;;;;;4.90;2.53;;;9.80;99.90;;;;;;5020813;28;20125;-73
2021/12/24 08:50:54;;;;;;;3.38;2.47;;;9.80;99.90;;;;;;5028056;28;20045;-75
2021/12/24 08:53:23;;;;;;;3.53;2.53;;;9.80;99.90;;;;;;5018438;28;20362;-74
2021/12/24 08:55:48;;;;;;;2.85;2.35;;;9.90;99.90;;;;;;5021073;28;20021;-75
2021/12/24 08:58:15;;;;;;;2.67;2.33;;;9.90;99.90;;;;;;5026976;28;20025;-75
2021/12/24 09:00:41;;;;;;;2.72;2.30;;;10.00;99.90;;;;;;5026009;28;20017;-73
2021/12/24 09:03:06;;;;;;;2.35;2.15;;;10.00;99.90;;;;;;5024095;28;20022;-75
2021/12/24 09:05:32;;;;;;;2.47;2.10;;;9.90;99.90;;;;;;5025886;28;20113;-75
2021/12/24 09:07:58;;;;;;;2.92;2.17;;;9.90;99.90;;;;;;5026096;28;20033;-75
2021/12/24 09:10:24;;;;;;;4.00;3.50;;;9.90;99.90;;;;;;5018342;28;20017;-75
2021/12/24 09:12:49;;;;;;;2.65;2.45;;;10.00;99.90;;;;;;5023509;28;20076;-74
2021/12/24 09:15:17;;;;;;;2.50;2.28;;;9.90;99.90;;;;;;5030159;28;20025;-75
2021/12/24 09:17:45;;;;;;;2.83;2.42;;;10.00;99.90;;;;;;5021924;28;20116;-74
2021/12/24 09:20:15;;;;;;;2.28;2.08;;;10.00;99.90;;;;;;5028404;28;20031;-76
2021/12/24 09:22:41;;;;;;;3.65;2.33;;;9.90;99.90;;;;;;5022323;28;20022;-74
2021/12/24 09:25:08;;;;;;;2.92;2.42;;;9.90;99.90;;;;;;5027928;28;20023;-75
2021/12/24 09:27:34;;;;;;;4.38;2.88;;;9.90;99.90;;;;;;5017088;28;20104;-75
2021/12/24 09:30:00;;;;;;;3.78;2.95;;;9.80;99.90;;;;;;5027337;28;20108;-75
2021/12/24 09:32:28;;;;;;;3.42;2.50;;;9.80;99.90;;;;;;5021269;28;20033;-75
2021/12/24 09:34:54;;;;;;;4.97;2.45;;;9.90;99.90;;;;;;5025775;28;20108;-75
2021/12/24 09:37:20;;;;;;;4.65;2.28;;;9.90;99.90;;;;;;5021980;28;20065;-75
2021/12/24 09:39:46;;;;;;;3.53;2.33;;;9.80;99.90;;;;;;5013117;28;20022;-76
2021/12/24 09:42:12;;;;;;;6.28;2.65;;;9.90;99.90;;;;;;5011636;28;20037;-75
2021/12/24 09:44:37;;;;;;;3.60;3.20;;;9.80;99.90;;;;;;5022010;28;20132;-74
2021/12/24 09:47:03;;;;;;;8.02;2.80;;;9.80;99.90;;;;;;5023380;28;20017;-75
2021/12/24 09:49:29;;;;;;;3.35;2.42;;;9.90;99.90;;;;;;5021507;28;20092;-74
2021/12/24 09:51:54;;;;;;;2.63;2.42;;;9.70;99.90;;;;;;5020771;28;20332;-74
2021/12/24 09:54:22;;;;;;;2.55;2.35;;;9.70;99.90;;;;;;5024614;28;20053;-74
2021/12/24 09:56:50;;;;;;;4.13;2.58;;;9.60;99.90;;;;;;5025296;28;20100;-74
2021/12/24 09:59:16;;;;;;;3.50;2.53;;;9.60;99.90;;;;;;5022949;28;20034;-76
2021/12/24 10:01:50;;;;;;;4.32;2.10;;;9.70;99.90;;;;;;5024039;28;20021;-74
2021/12/24 10:04:19;;;;;;;3.15;2.60;;;9.70;99.90;;;;;;5022008;28;20065;-74
2021/12/24 10:07:07;;;;;;;4.97;2.90;;;9.70;99.90;;;;;;5023981;28;20159;-74
2021/12/24 10:09:37;;;;;;;4.32;2.58;;;9.70;99.90;;;;;;5015233;28;20024;-74
2021/12/24 10:12:08;;;;;;;6.55;3.22;;;9.70;99.90;;;;;;5023381;28;20033;-74
2021/12/24 10:14:39;;;;;;;4.10;2.90;;;9.60;99.90;;;;;;5023489;28;20033;-76
2021/12/24 10:17:12;;;;;;;;;;;9.70;99.90;;;;;;5021968;28;20033;-75
2021/12/24 10:19:55;;;;;;;5.35;2.88;;;9.70;99.90;;;;;;5024222;28;19905;-75
2021/12/24 10:22:22;;;;;;;4.43;2.17;;;9.80;99.90;;;;;;5021057;28;20198;-74
2021/12/24 10:24:57;;;;;;;4.03;2.80;;;9.70;99.90;;;;;;5022034;28;20018;-75
2021/12/24 10:27:28;;;;;;;3.53;2.55;;;9.80;99.90;;;;;;5021828;28;20017;-76
2021/12/24 10:29:54;;;;;;;2.90;2.40;;;9.70;99.90;;;;;;5022728;28;20195;-75
2021/12/24 10:32:19;;;;;;;3.58;2.40;;;9.80;99.90;;;;;;5022941;28;20033;-75
2021/12/24 10:34:46;;;;;;;3.20;2.28;;;9.90;99.90;;;;;;5021031;28;20469;-74
2021/12/24 10:37:22;;;;;;;4.10;2.65;;;9.90;99.90;;;;;;5021798;28;20026;-75
2021/12/24 10:39:53;;;;;;;5.28;3.00;;;9.90;99.90;;;;;;5023186;28;20478;-75
2021/12/24 10:42:35;;;;;;;4.80;2.47;;;9.80;99.90;;;;;;5022853;28;20025;-74
2021/12/24 10:45:03;;;;;;;2.83;2.55;;;9.80;99.90;;;;;;5021472;28;20430;-74
2021/12/24 10:47:32;;;;;;;4.35;2.53;;;9.80;99.90;;;;;;5023426;28;20202;-74
2021/12/24 10:52:47;;;;;;;2.25;1.92;;;9.80;99.90;;;;;;5011102;28;20108;-76
2021/12/24 10:55:18;;;;;;;4.07;2.22;;;9.80;99.90;;;;;;5023861;28;20564;-75
2021/12/24 10:57:46;;;;;;;8.02;3.00;;;9.80;99.90;;;;;;5023785;28;20133;-76
2021/12/24 11:00:23;;;;;;;4.05;2.50;;;9.70;99.90;;;;;;5022889;28;20101;-76
2021/12/24 11:03:04;;;;;;;2.97;2.25;;;9.80;99.90;;;;;;5023255;28;20354;-74
2021/12/24 11:05:34;;;;;;;3.97;2.55;;;9.70;99.90;;;;;;5020902;28;20018;-75
2021/12/24 11:08:03;;;;;;;2.40;2.20;;;9.70;99.90;;;;;;5021667;28;20051;-75
2021/12/24 11:10:32;;;;;;;4.28;2.53;;;9.70;99.90;;;;;;5022680;28;20576;-75
2021/12/24 11:13:07;;;;;;;4.53;2.50;;;9.80;99.90;;;;;;5022915;28;20030;-75
2021/12/24 11:15:34;;;;;;;2.92;2.25;;;9.80;99.90;;;;;;5022949;28;20386;-75
2021/12/24 11:18:03;;;;;;;2.30;1.88;;;9.80;99.90;;;;;;5022858;28;20028;-75
2021/12/24 11:20:30;;;;;;;4.47;2.35;;;9.90;99.90;;;;;;5021765;28;20021;-75
2021/12/24 11:23:00;;;;;;;5.05;2.15;;;9.90;99.90;;;;;;5022834;28;20496;-75
2021/12/24 11:25:30;;;;;;;3.90;2.25;;;9.90;99.90;;;;;;5021516;28;20151;-75
2021/12/24 11:27:56;;;;;;;1.60;1.50;;;9.80;99.90;;;;;;5020980;28;20023;-76
2021/12/24 11:30:23;;;;;;;2.60;2.17;;;9.90;99.90;;;;;;5026073;28;20397;-74
2021/12/24 11:32:49;;;;;;;2.60;2.40;;;10.00;99.90;;;;;;5019472;28;20026;-75
2021/12/24 11:35:16;;;;;;;2.95;1.90;;;10.00;99.90;;;;;;5027037;28;20121;-76
2021/12/24 11:37:44;;;;;;;3.38;2.08;;;10.00;99.90;;;;;;5018853;28;20040;-74
2021/12/24 11:40:20;;;;;;;3.60;2.10;;;10.00;99.90;;;;;;5011605;28;20026;-74
2021/12/24 11:43:04;;;;;;;2.38;1.65;;;10.00;99.90;;;;;;5020234;28;20474;-74
2021/12/24 11:45:32;;;;;;;2.17;1.98;;;9.90;99.90;;;;;;5016575;28;20156;-75
2021/12/24 11:47:58;;;;;;;2.78;1.75;;;10.10;99.90;;;;;;5025544;28;20037;-75
2021/12/24 11:50:25;;;;;;;3.00;1.38;;;10.00;99.90;;;;;;5016605;28;20018;-74
2021/12/24 11:52:54;;;;;;;1.65;1.38;;;10.00;99.90;;;;;;5020748;28;20017;-73
2021/12/24 11:55:20;;;;;;;2.45;1.60;;;10.00;99.90;;;;;;5026012;28;20033;-74
2021/12/24 11:58:17;;;;;;;2.97;1.73;;;10.00;99.90;;;;;;5024602;28;20401;-74
2021/12/24 12:00:45;;;;;;;1.67;1.42;;;10.10;99.90;;;;;;5003046;28;20038;-73
2021/12/24 12:03:31;;;;;;;2.50;1.20;;;10.10;99.90;;;;;;5020429;28;20065;-74
2021/12/24 12:05:57;;;;;;;4.95;1.73;;;10.20;99.90;;;;;;5025885;28;20477;-75
2021/12/24 12:08:25;;;;;;;2.40;1.27;;;10.20;99.90;;;;;;5025835;28;20036;-74
2021/12/24 12:10:55;;;;;;;1.85;1.60;;;10.20;99.90;;;;;;5025981;28;20010;-75
2021/12/24 12:13:36;;;;;;;2.33;1.55;;;10.30;99.90;;;;;;5025593;28;20516;-74
2021/12/24 12:16:02;;;;;;;1.58;1.30;;;10.50;99.90;;;;;;5026690;28;20036;-76
2021/12/24 12:18:43;;;;;;;3.42;1.85;;;10.50;99.90;;;;;;5027376;28;20485;-74
2021/12/24 12:21:22;;;;;;;3.75;1.52;;;10.50;99.90;;;;;;5025686;28;20117;-74
2021/12/24 12:26:37;;;;;;;3.58;1.83;;;10.60;99.90;;;;;;5023146;28;20021;-75
2021/12/24 12:29:22;;;;;;;2.05;1.13;;;10.60;99.90;;;;;;5018836;28;20018;-74
2021/12/24 12:31:54;;;;;;;3.13;1.20;;;10.70;99.90;;;;;;5025556;28;20057;-75
2021/12/24 12:34:41;;;;;;;2.45;1.20;;;10.70;99.90;;;;;;5024892;28;20397;-74
2021/12/24 12:37:17;;;;;;;2.00;1.08;;;10.70;99.90;;;;;;5023680;28;20018;-74
2021/12/24 12:39:46;;;;;;;2.45;1.23;;;10.60;99.90;;;;;;5023199;28;20124;-74
2021/12/24 12:42:17;;;;;;;1.05;0.90;;;10.60;99.90;;;;;;5023692;28;20076;-75
2021/12/24 12:44:49;;;;;;;1.30;1.17;;;10.50;99.90;;;;;;5024292;28;20014;-74
2021/12/24 12:47:21;;;;;;;3.15;1.60;;;10.50;99.90;;;;;;5050262;28;20343;-72
2021/12/24 12:49:48;;;;;;;1.23;0.90;;;10.50;99.90;;;;;;5051362;28;20013;-73
2021/12/24 12:52:30;;;;;;;0.90;0.85;;;10.50;99.90;;;;;;5041825;28;20018;-72
2021/12/24 12:54:56;;;;;;;1.38;1.10;;;10.60;99.90;;;;;;5047282;28;20037;-73
2021/12/24 12:57:34;;;;;;;1.83;0.85;;;10.60;99.90;;;;;;5030244;28;20048;-74
2021/12/24 13:00:19;;;;;;;0.90;0.90;;;10.70;99.90;;;;;;5008849;28;20026;-72
2021/12/24 13:02:57;;;;;;;2.13;0.65;;;10.70;99.90;;;;;;5012648;28;20505;-73
2021/12/24 13:05:24;;;;;;;2.42;0.80;;;10.80;99.90;;;;;;5014928;28;20493;-72
2021/12/24 13:07:50;;;;;;;1.05;0.70;;;10.70;99.90;;;;;;5016650;28;20032;-72
2021/12/24 13:10:20;;;;;;;1.42;0.80;;;10.70;99.90;;;;;;5013946;28;20026;-73
2021/12/24 13:12:46;;;;;;;0.60;0.50;;;10.70;99.90;;;;;;5016277;28;20018;-71
2021/12/24 13:15:16;;;;;;;2.20;0.80;;;10.70;99.90;;;;;;5024789;28;20573;-72
2021/12/24 13:17:46;;;;;;;0.98;0.70;;;10.70;99.90;;;;;;5019238;28;20503;-73
2021/12/24 13:20:18;;;;;;;0.98;0.70;;;10.70;99.90;;;;;;5021826;28;20034;-71
2021/12/24 13:22:44;;;;;;;0.90;0.80;;;10.60;99.90;;;;;;5034924;28;20061;-73
2021/12/24 13:25:13;;;;;;;1.92;1.08;;;10.60;99.90;;;;;;5025356;28;20131;-74
2021/12/24 13:27:51;;;;;;;1.05;0.73;;;10.50;99.90;;;;;;5025611;28;20017;-71
2021/12/24 13:30:17;;;;;;;1.50;0.88;;;10.50;99.90;;;;;;5021100;28;20022;-71
2021/12/24 13:32:54;;;;;;;1.00;0.90;;;10.50;99.90;;;;;;5022268;28;20551;-71
2021/12/24 13:35:27;;;;;;;1.02;0.90;;;10.50;99.90;;;;;;5025223;28;20017;-70
2021/12/24 13:37:54;;;;;;;0.98;0.88;;;10.50;99.90;;;;;;5036041;28;20026;-72
2021/12/24 13:40:32;;;;;;;0.98;0.88;;;10.50;99.90;;;;;;5012748;28;20040;-73
2021/12/24 13:43:04;;;;;;;2.10;1.02;;;10.50;99.90;;;;;;5021536;23;20245;-76
2021/12/24 13:45:35;;;;;;;0.60;0.60;;;10.50;99.90;;;;;;5017973;28;20095;-77
2021/12/24 13:48:11;;;;;;;0.88;0.80;;;10.40;99.90;;;;;;5013389;28;20529;-77
2021/12/24 13:56:48;;;;;;;1.30;1.08;;;10.40;99.90;;;;;;5000327;28;20080;-77
2021/12/24 13:59:20;;;;;;;1.17;0.80;;;10.40;99.90;;;;;;4994881;28;20042;-77
2021/12/24 14:01:46;;;;;;;3.63;1.00;;;10.40;99.90;;;;;;5008042;28;20371;-76
2021/12/24 14:04:16;;;;;;;1.88;1.00;;;10.40;99.90;;;;;;5002617;28;20038;-77
2021/12/24 14:06:48;;;;;;;1.20;0.88;;;10.30;99.90;;;;;;5022256;28;20069;-77
2021/12/24 14:09:16;;;;;;;1.42;1.05;;;10.40;99.90;;;;;;5009908;28;20026;-78
2021/12/24 14:11:43;;;;;;;1.80;0.93;;;10.40;99.90;;;;;;5009620;28;20019;-78
2021/12/24 14:14:15;;;;;;;0.98;0.90;;;10.30;99.90;;;;;;5003237;28;20033;-75
2021/12/24 14:19:38;;;;;;;2.53;1.27;;;10.30;99.90;;;;;;5030103;28;20022;-76
2021/12/24 14:22:12;;;;;;;1.67;1.13;;;10.40;99.90;;;;;;5026784;28;20040;-77
2021/12/24 14:24:55;;;;;;;1.30;0.90;;;10.40;99.90;;;;;;5029578;28;20037;-76
2021/12/24 14:27:23;;;;;;;2.25;1.10;;;10.40;99.90;;;;;;5006084;28;20021;-77
2021/12/24 14:29:55;;;;;;;1.48;0.80;;;10.40;99.90;;;;;;5002669;28;20057;-77
2021/12/24 14:32:35;;;;;;;1.15;0.85;;;10.40;99.90;;;;;;5008816;28;20161;-75
2021/12/24 14:35:14;;;;;;;0.80;0.75;;;10.40;99.90;;;;;;5016673;28;20051;-75
2021/12/24 14:37:41;;;;;;;1.27;1.10;;;10.50;99.90;;;;;;5019454;28;20021;-76
2021/12/24 14:40:06;;;;;;;1.60;1.00;;;10.40;99.90;;;;;;5008001;28;20022;-77
2021/12/24 14:42:41;;;;;;;3.70;1.10;;;10.40;99.90;;;;;;5017215;28;20085;-78
2021/12/24 14:45:34;;;;;;;1.08;0.70;;;10.40;99.90;;;;;;4998648;28;20030;-76
2021/12/24 14:48:07;;;;;;;0.93;0.88;;;10.30;99.90;;;;;;4988506;28;20045;-77
2021/12/24 14:50:46;;;;;;;1.00;0.80;;;10.30;99.90;;;;;;5010738;28;20059;-78
2021/12/24 14:53:19;;;;;;;1.65;0.90;;;10.30;99.90;;;;;;4997801;28;20024;-76